sensor_id;sensor_type;location;lat;lon;timestamp;temperature;humidity
51619;DHT22;38518;53.164;5.430;2022-12-15T00:01:05;1.90;1.00
51619;DHT22;38518;53.164;5.430;2022-12-15T00:03:49;0.50;99.90
51619;DHT22;38518;53.164;5.430;2022-12-15T00:06:33;1.60;99.90
51619;DHT22;38518;53.164;5.430;2022-12-15T00:09:18;0.60;99.90
51619;DHT22;38518;53.164;5.430;2022-12-15T00:12:02;1.90;99.90
51619;DHT22;38518;53.164;5.430;2022-12-15T00:14:46;0.50;99.90
51619;DHT22;38518;53.164;5.430;2022-12-15T00:17:31;0.40;99.90
51619;DHT22;38518;53.164;5.430;2022-12-15T00:20:16;0.20;99.90
51619;DHT22;38518;53.164;5.430;2022-12-15T00:23:11;1.80;99.90
51619;DHT22;38518;53.164;5.430;2022-12-15T00:25:55;0.40;99.90
51619;DHT22;38518;53.164;5.430;2022-12-15T00:28:39;1.90;99.90
51619;DHT22;38518;53.164;5.430;2022-12-15T00:31:24;0.30;99.90
51619;DHT22;38518;53.164;5.430;2022-12-15T00:34:08;1.70;1.00
51619;DHT22;38518;53.164;5.430;2022-12-15T00:36:53;0.60;1.00
51619;DHT22;38518;53.164;5.430;2022-12-15T00:39:37;0.80;1.00
51619;DHT22;38518;53.164;5.430;2022-12-15T00:42:05;1.70;1.00
51619;DHT22;38518;53.164;5.430;2022-12-15T00:44:31;1.90;1.00
51619;DHT22;38518;53.164;5.430;2022-12-15T00:46:57;1.40;99.90
51619;DHT22;38518;53.164;5.430;2022-12-15T00:49:27;2.80;99.90
51619;DHT22;38518;53.164;5.430;2022-12-15T00:52:13;1.40;99.90
51619;DHT22;38518;53.164;5.430;2022-12-15T00:54:57;2.00;99.90
51619;DHT22;38518;53.164;5.430;2022-12-15T00:57:43;1.50;99.90
51619;DHT22;38518;53.164;5.430;2022-12-15T01:00:27;2.50;99.90
51619;DHT22;38518;53.164;5.430;2022-12-15T01:03:20;1.30;99.90
51619;DHT22;38518;53.164;5.430;2022-12-15T01:06:06;1.70;99.90
51619;DHT22;38518;53.164;5.430;2022-12-15T01:08:50;1.20;99.90
51619;DHT22;38518;53.164;5.430;2022-12-15T01:11:35;1.40;99.90
51619;DHT22;38518;53.164;5.430;2022-12-15T01:14:20;1.10;99.90
51619;DHT22;38518;53.164;5.430;2022-12-15T01:17:04;2.40;99.90
51619;DHT22;38518;53.164;5.430;2022-12-15T01:19:49;1.80;99.90
51619;DHT22;38518;53.164;5.430;2022-12-15T01:22:35;1.90;99.90
51619;DHT22;38518;53.164;5.430;2022-12-15T01:25:00;2.00;99.90
51619;DHT22;38518;53.164;5.430;2022-12-15T01:27:28;2.10;99.90
51619;DHT22;38518;53.164;5.430;2022-12-15T01:29:53;0.50;99.90
51619;DHT22;38518;53.164;5.430;2022-12-15T01:32:19;0.80;99.90
51619;DHT22;38518;53.164;5.430;2022-12-15T01:34:45;1.20;99.90
51619;DHT22;38518;53.164;5.430;2022-12-15T01:37:11;1.70;99.90
51619;DHT22;38518;53.164;5.430;2022-12-15T01:39:37;2.30;99.90
51619;DHT22;38518;53.164;5.430;2022-12-15T01:42:21;0.40;99.90
51619;DHT22;38518;53.164;5.430;2022-12-15T01:44:50;1.50;99.90
51619;DHT22;38518;53.164;5.430;2022-12-15T01:47:16;2.40;99.90
51619;DHT22;38518;53.164;5.430;2022-12-15T01:49:43;1.70;99.90
51619;DHT22;38518;53.164;5.430;2022-12-15T01:52:13;1.60;99.90
51619;DHT22;38518;53.164;5.430;2022-12-15T01:54:51;1.30;99.90
51619;DHT22;38518;53.164;5.430;2022-12-15T01:57:22;1.20;99.90
51619;DHT22;38518;53.164;5.430;2022-12-15T01:59:53;2.50;99.90
51619;DHT22;38518;53.164;5.430;2022-12-15T02:02:23;0.60;99.90
51619;DHT22;38518;53.164;5.430;2022-12-15T02:04:51;0.50;99.90
51619;DHT22;38518;53.164;5.430;2022-12-15T02:07:18;1.50;99.90
51619;DHT22;38518;53.164;5.430;2022-12-15T02:09:45;0.80;99.90
51619;DHT22;38518;53.164;5.430;2022-12-15T02:31:14;1.30;1.00
51619;DHT22;38518;53.164;5.430;2022-12-15T02:36:51;1.30;1.00
51619;DHT22;38518;53.164;5.430;2022-12-15T02:39:19;1.30;1.00
51619;DHT22;38518;53.164;5.430;2022-12-15T02:41:46;1.00;1.00
51619;DHT22;38518;53.164;5.430;2022-12-15T02:55:17;0.60;99.90
51619;DHT22;38518;53.164;5.430;2022-12-15T02:57:55;0.60;99.90
51619;DHT22;38518;53.164;5.430;2022-12-15T03:00:24;1.40;99.90
51619;DHT22;38518;53.164;5.430;2022-12-15T03:02:52;2.00;99.90
51619;DHT22;38518;53.164;5.430;2022-12-15T03:05:19;0.40;99.90
51619;DHT22;38518;53.164;5.430;2022-12-15T03:07:49;0.30;99.90
51619;DHT22;38518;53.164;5.430;2022-12-15T03:10:15;0.80;99.90
51619;DHT22;38518;53.164;5.430;2022-12-15T03:12:42;-0.30;99.90
51619;DHT22;38518;53.164;5.430;2022-12-15T03:15:08;1.50;99.90
51619;DHT22;38518;53.164;5.430;2022-12-15T03:17:33;0.30;99.90
51619;DHT22;38518;53.164;5.430;2022-12-15T03:19:59;1.30;99.90
51619;DHT22;38518;53.164;5.430;2022-12-15T03:22:25;1.30;99.90
51619;DHT22;38518;53.164;5.430;2022-12-15T03:24:51;0.20;99.90
51619;DHT22;38518;53.164;5.430;2022-12-15T03:27:16;1.50;99.90
51619;DHT22;38518;53.164;5.430;2022-12-15T03:29:42;0.20;99.90
51619;DHT22;38518;53.164;5.430;2022-12-15T03:32:08;1.30;99.90
51619;DHT22;38518;53.164;5.430;2022-12-15T03:34:34;0.80;99.90
51619;DHT22;38518;53.164;5.430;2022-12-15T03:37:00;0.10;1.00
51619;DHT22;38518;53.164;5.430;2022-12-15T03:39:28;1.50;1.00
51619;DHT22;38518;53.164;5.430;2022-12-15T03:41:54;2.20;1.00
51619;DHT22;38518;53.164;5.430;2022-12-15T03:44:19;1.80;1.00
51619;DHT22;38518;53.164;5.430;2022-12-15T03:46:45;1.50;1.00
51619;DHT22;38518;53.164;5.430;2022-12-15T03:49:11;2.30;1.00
51619;DHT22;38518;53.164;5.430;2022-12-15T03:51:37;0.90;1.00
51619;DHT22;38518;53.164;5.430;2022-12-15T03:54:03;1.40;1.00
51619;DHT22;38518;53.164;5.430;2022-12-15T03:56:29;1.90;1.00
51619;DHT22;38518;53.164;5.430;2022-12-15T03:58:55;1.80;1.00
51619;DHT22;38518;53.164;5.430;2022-12-15T04:01:32;1.10;1.00
51619;DHT22;38518;53.164;5.430;2022-12-15T04:03:58;2.00;1.00
51619;DHT22;38518;53.164;5.430;2022-12-15T04:06:25;1.70;1.00
51619;DHT22;38518;53.164;5.430;2022-12-15T04:08:51;1.70;1.00
51619;DHT22;38518;53.164;5.430;2022-12-15T04:11:17;2.10;1.00
51619;DHT22;38518;53.164;5.430;2022-12-15T04:13:43;2.30;1.00
51619;DHT22;38518;53.164;5.430;2022-12-15T04:16:09;2.10;1.00
51619;DHT22;38518;53.164;5.430;2022-12-15T04:18:36;0.90;1.00
51619;DHT22;38518;53.164;5.430;2022-12-15T04:21:02;0.90;1.00
51619;DHT22;38518;53.164;5.430;2022-12-15T04:23:28;0.80;1.00
51619;DHT22;38518;53.164;5.430;2022-12-15T04:25:53;2.20;1.00
51619;DHT22;38518;53.164;5.430;2022-12-15T04:28:38;1.10;1.00
51619;DHT22;38518;53.164;5.430;2022-12-15T04:31:25;1.60;1.00
51619;DHT22;38518;53.164;5.430;2022-12-15T04:34:15;0.90;1.00
51619;DHT22;38518;53.164;5.430;2022-12-15T04:37:00;1.70;1.00
51619;DHT22;38518;53.164;5.430;2022-12-15T04:39:48;1.80;1.00
51619;DHT22;38518;53.164;5.430;2022-12-15T04:42:34;3.00;1.00
51619;DHT22;38518;53.164;5.430;2022-12-15T04:45:21;1.60;1.00
51619;DHT22;38518;53.164;5.430;2022-12-15T04:48:06;1.30;1.00
51619;DHT22;38518;53.164;5.430;2022-12-15T04:50:53;2.90;1.00
51619;DHT22;38518;53.164;5.430;2022-12-15T04:53:38;1.70;1.00
51619;DHT22;38518;53.164;5.430;2022-12-15T04:56:22;2.60;1.00
51619;DHT22;38518;53.164;5.430;2022-12-15T04:59:06;3.00;1.00
51619;DHT22;38518;53.164;5.430;2022-12-15T05:01:50;3.00;1.00
51619;DHT22;38518;53.164;5.430;2022-12-15T05:04:35;2.10;1.00
51619;DHT22;38518;53.164;5.430;2022-12-15T05:07:19;1.60;1.00
51619;DHT22;38518;53.164;5.430;2022-12-15T05:10:04;2.10;1.00
51619;DHT22;38518;53.164;5.430;2022-12-15T05:12:49;1.80;1.00
51619;DHT22;38518;53.164;5.430;2022-12-15T05:15:33;1.80;1.00
51619;DHT22;38518;53.164;5.430;2022-12-15T05:21:06;2.00;1.00
51619;DHT22;38518;53.164;5.430;2022-12-15T05:23:51;2.10;1.00
51619;DHT22;38518;53.164;5.430;2022-12-15T05:26:35;3.30;1.00
51619;DHT22;38518;53.164;5.430;2022-12-15T05:29:21;1.90;1.00
51619;DHT22;38518;53.164;5.430;2022-12-15T05:32:06;2.00;99.90
51619;DHT22;38518;53.164;5.430;2022-12-15T05:34:33;3.70;99.90
51619;DHT22;38518;53.164;5.430;2022-12-15T05:37:01;2.60;99.90
51619;DHT22;38518;53.164;5.430;2022-12-15T05:39:28;2.50;99.90
51619;DHT22;38518;53.164;5.430;2022-12-15T05:41:55;3.80;99.90
51619;DHT22;38518;53.164;5.430;2022-12-15T05:44:22;2.00;99.90
51619;DHT22;38518;53.164;5.430;2022-12-15T05:46:48;2.30;99.90
51619;DHT22;38518;53.164;5.430;2022-12-15T05:49:16;2.10;99.90
51619;DHT22;38518;53.164;5.430;2022-12-15T05:51:44;2.10;99.90
51619;DHT22;38518;53.164;5.430;2022-12-15T05:54:11;3.30;99.90
51619;DHT22;38518;53.164;5.430;2022-12-15T05:56:38;2.40;1.00
51619;DHT22;38518;53.164;5.430;2022-12-15T05:59:04;1.50;1.00
51619;DHT22;38518;53.164;5.430;2022-12-15T06:01:30;2.20;1.00
51619;DHT22;38518;53.164;5.430;2022-12-15T06:03:57;3.40;1.00
51619;DHT22;38518;53.164;5.430;2022-12-15T06:06:24;2.80;1.00
51619;DHT22;38518;53.164;5.430;2022-12-15T06:11:19;1.50;1.00
51619;DHT22;38518;53.164;5.430;2022-12-15T06:13:45;2.90;1.00
51619;DHT22;38518;53.164;5.430;2022-12-15T06:16:13;2.10;1.00
51619;DHT22;38518;53.164;5.430;2022-12-15T06:18:42;2.50;1.00
51619;DHT22;38518;53.164;5.430;2022-12-15T06:21:10;1.70;1.00
51619;DHT22;38518;53.164;5.430;2022-12-15T06:23:40;1.60;1.00
51619;DHT22;38518;53.164;5.430;2022-12-15T06:26:10;1.10;1.00
51619;DHT22;38518;53.164;5.430;2022-12-15T06:28:37;2.40;1.00
51619;DHT22;38518;53.164;5.430;2022-12-15T06:31:04;1.70;1.00
51619;DHT22;38518;53.164;5.430;2022-12-15T06:33:30;1.80;1.00
51619;DHT22;38518;53.164;5.430;2022-12-15T06:35:56;2.80;1.00
51619;DHT22;38518;53.164;5.430;2022-12-15T06:38:27;3.20;1.00
51619;DHT22;38518;53.164;5.430;2022-12-15T06:41:02;1.90;1.00
51619;DHT22;38518;53.164;5.430;2022-12-15T06:43:28;2.00;1.00
51619;DHT22;38518;53.164;5.430;2022-12-15T06:45:55;2.90;1.00
51619;DHT22;38518;53.164;5.430;2022-12-15T06:48:22;2.20;1.00
51619;DHT22;38518;53.164;5.430;2022-12-15T06:50:48;2.00;1.00
51619;DHT22;38518;53.164;5.430;2022-12-15T06:53:15;3.00;1.00
51619;DHT22;38518;53.164;5.430;2022-12-15T06:55:45;2.40;1.00
51619;DHT22;38518;53.164;5.430;2022-12-15T06:58:11;2.30;1.00
51619;DHT22;38518;53.164;5.430;2022-12-15T07:00:39;3.70;99.90
51619;DHT22;38518;53.164;5.430;2022-12-15T07:03:17;2.20;99.90
51619;DHT22;38518;53.164;5.430;2022-12-15T07:05:44;3.60;99.90
51619;DHT22;38518;53.164;5.430;2022-12-15T07:08:11;3.70;99.90
51619;DHT22;38518;53.164;5.430;2022-12-15T07:10:39;2.70;99.90
51619;DHT22;38518;53.164;5.430;2022-12-15T07:13:06;2.70;99.90
51619;DHT22;38518;53.164;5.430;2022-12-15T07:15:33;3.60;99.90
51619;DHT22;38518;53.164;5.430;2022-12-15T07:17:59;2.20;99.90
51619;DHT22;38518;53.164;5.430;2022-12-15T07:20:25;3.60;99.90
51619;DHT22;38518;53.164;5.430;2022-12-15T07:22:51;4.10;99.90
51619;DHT22;38518;53.164;5.430;2022-12-15T07:25:17;2.70;99.90
51619;DHT22;38518;53.164;5.430;2022-12-15T07:27:44;3.80;99.90
51619;DHT22;38518;53.164;5.430;2022-12-15T07:30:11;3.50;99.90
51619;DHT22;38518;53.164;5.430;2022-12-15T07:32:39;2.60;99.90
51619;DHT22;38518;53.164;5.430;2022-12-15T07:35:05;2.40;99.90
51619;DHT22;38518;53.164;5.430;2022-12-15T07:37:33;2.50;99.90
51619;DHT22;38518;53.164;5.430;2022-12-15T07:39:59;2.50;99.90
51619;DHT22;38518;53.164;5.430;2022-12-15T07:42:28;2.50;99.90
51619;DHT22;38518;53.164;5.430;2022-12-15T07:45:02;3.20;99.90
51619;DHT22;38518;53.164;5.430;2022-12-15T07:47:33;2.30;99.90
51619;DHT22;38518;53.164;5.430;2022-12-15T07:50:16;3.80;99.90
51619;DHT22;38518;53.164;5.430;2022-12-15T07:52:57;2.40;99.90
51619;DHT22;38518;53.164;5.430;2022-12-15T07:55:25;3.20;99.90
51619;DHT22;38518;53.164;5.430;2022-12-15T07:57:54;2.30;99.90
51619;DHT22;38518;53.164;5.430;2022-12-15T08:00:20;3.10;99.90
51619;DHT22;38518;53.164;5.430;2022-12-15T08:02:52;2.50;99.90
51619;DHT22;38518;53.164;5.430;2022-12-15T08:05:18;3.30;99.90
51619;DHT22;38518;53.164;5.430;2022-12-15T08:08:10;3.10;99.90
51619;DHT22;38518;53.164;5.430;2022-12-15T08:11:21;2.50;99.90
51619;DHT22;38518;53.164;5.430;2022-12-15T08:13:49;4.00;99.90
51619;DHT22;38518;53.164;5.430;2022-12-15T08:16:22;4.00;99.90
51619;DHT22;38518;53.164;5.430;2022-12-15T08:19:23;3.80;99.90
51619;DHT22;38518;53.164;5.430;2022-12-15T08:22:00;2.60;99.90
51619;DHT22;38518;53.164;5.430;2022-12-15T08:24:32;3.10;99.90
51619;DHT22;38518;53.164;5.430;2022-12-15T08:27:31;3.80;99.90
51619;DHT22;38518;53.164;5.430;2022-12-15T08:33:47;2.40;99.90
51619;DHT22;38518;53.164;5.430;2022-12-15T08:36:42;2.60;99.90
51619;DHT22;38518;53.164;5.430;2022-12-15T08:39:11;2.60;99.90
51619;DHT22;38518;53.164;5.430;2022-12-15T08:49:46;2.80;99.90
51619;DHT22;38518;53.164;5.430;2022-12-15T08:52:52;4.00;99.90
51619;DHT22;38518;53.164;5.430;2022-12-15T08:56:34;3.60;99.90
51619;DHT22;38518;53.164;5.430;2022-12-15T08:59:14;4.00;99.90
51619;DHT22;38518;53.164;5.430;2022-12-15T09:20:15;3.70;99.90
51619;DHT22;38518;53.164;5.430;2022-12-15T09:26:40;3.70;99.90
51619;DHT22;38518;53.164;5.430;2022-12-15T09:29:18;4.80;99.90
51619;DHT22;38518;53.164;5.430;2022-12-15T09:32:31;3.50;99.90
51619;DHT22;38518;53.164;5.430;2022-12-15T09:39:33;4.00;99.90
51619;DHT22;38518;53.164;5.430;2022-12-15T09:42:31;5.00;99.90
51619;DHT22;38518;53.164;5.430;2022-12-15T09:45:13;4.60;99.90
51619;DHT22;38518;53.164;5.430;2022-12-15T09:47:59;6.60;92.20
51619;DHT22;38518;53.164;5.430;2022-12-15T10:20:33;9.40;1.00
51619;DHT22;38518;53.164;5.430;2022-12-15T10:23:44;8.90;1.00
51619;DHT22;38518;53.164;5.430;2022-12-15T10:26:52;8.70;1.00
51619;DHT22;38518;53.164;5.430;2022-12-15T10:29:43;9.60;1.00
51619;DHT22;38518;53.164;5.430;2022-12-15T10:34:41;7.90;1.00
51619;DHT22;38518;53.164;5.430;2022-12-15T10:37:17;8.50;1.00
51619;DHT22;38518;53.164;5.430;2022-12-15T10:39:46;8.60;1.00
51619;DHT22;38518;53.164;5.430;2022-12-15T10:42:22;9.20;1.00
51619;DHT22;38518;53.164;5.430;2022-12-15T10:44:51;9.60;1.00
51619;DHT22;38518;53.164;5.430;2022-12-15T10:49:49;10.50;1.00
51619;DHT22;38518;53.164;5.430;2022-12-15T10:52:35;9.80;1.00
51619;DHT22;38518;53.164;5.430;2022-12-15T10:55:01;9.30;1.00
51619;DHT22;38518;53.164;5.430;2022-12-15T10:57:29;8.80;1.00
51619;DHT22;38518;53.164;5.430;2022-12-15T11:02:43;10.00;1.00
51619;DHT22;38518;53.164;5.430;2022-12-15T11:07:44;10.00;1.00
51619;DHT22;38518;53.164;5.430;2022-12-15T11:10:23;10.70;1.00
51619;DHT22;38518;53.164;5.430;2022-12-15T11:13:12;11.10;1.00
51619;DHT22;38518;53.164;5.430;2022-12-15T11:15:44;11.20;1.00
51619;DHT22;38518;53.164;5.430;2022-12-15T11:18:17;11.10;1.00
51619;DHT22;38518;53.164;5.430;2022-12-15T11:21:21;11.50;1.00
51619;DHT22;38518;53.164;5.430;2022-12-15T11:26:42;12.50;1.00
51619;DHT22;38518;53.164;5.430;2022-12-15T11:32:18;12.70;1.00
51619;DHT22;38518;53.164;5.430;2022-12-15T11:34:46;12.60;1.00
51619;DHT22;38518;53.164;5.430;2022-12-15T11:41:05;12.70;1.00
51619;DHT22;38518;53.164;5.430;2022-12-15T11:56:42;9.90;1.00
51619;DHT22;38518;53.164;5.430;2022-12-15T12:18:44;6.30;1.00
51619;DHT22;38518;53.164;5.430;2022-12-15T12:21:46;6.50;1.00
51619;DHT22;38518;53.164;5.430;2022-12-15T12:24:31;6.20;1.00
51619;DHT22;38518;53.164;5.430;2022-12-15T12:29:43;4.70;1.00
51619;DHT22;38518;53.164;5.430;2022-12-15T12:37:42;5.80;16.80
51619;DHT22;38518;53.164;5.430;2022-12-15T12:40:19;5.80;18.90
51619;DHT22;38518;53.164;5.430;2022-12-15T12:42:52;5.80;27.40
51619;DHT22;38518;53.164;5.430;2022-12-15T12:45:24;5.80;21.50
51619;DHT22;38518;53.164;5.430;2022-12-15T12:47:53;6.30;30.10
51619;DHT22;38518;53.164;5.430;2022-12-15T12:50:26;5.80;33.40
51619;DHT22;38518;53.164;5.430;2022-12-15T12:52:57;5.80;29.30
51619;DHT22;38518;53.164;5.430;2022-12-15T12:57:55;5.80;32.10
51619;DHT22;38518;53.164;5.430;2022-12-15T13:00:26;6.70;39.50
51619;DHT22;38518;53.164;5.430;2022-12-15T13:02:54;6.40;44.30
51619;DHT22;38518;53.164;5.430;2022-12-15T13:05:32;6.00;50.30
51619;DHT22;38518;53.164;5.430;2022-12-15T13:10:56;6.40;69.00
51619;DHT22;38518;53.164;5.430;2022-12-15T13:13:43;5.30;76.00
51619;DHT22;38518;53.164;5.430;2022-12-15T13:16:23;6.40;90.40
51619;DHT22;38518;53.164;5.430;2022-12-15T13:19:04;6.10;96.50
51619;DHT22;38518;53.164;5.430;2022-12-15T13:29:33;5.30;99.90
51619;DHT22;38518;53.164;5.430;2022-12-15T13:32:00;4.90;99.90
51619;DHT22;38518;53.164;5.430;2022-12-15T13:34:27;5.20;99.90
51619;DHT22;38518;53.164;5.430;2022-12-15T13:36:57;4.60;99.90
51619;DHT22;38518;53.164;5.430;2022-12-15T13:49:48;4.40;99.90
51619;DHT22;38518;53.164;5.430;2022-12-15T13:54:56;6.00;99.90
51619;DHT22;38518;53.164;5.430;2022-12-15T13:57:24;4.40;99.90
51619;DHT22;38518;53.164;5.430;2022-12-15T14:00:05;4.40;99.90
51619;DHT22;38518;53.164;5.430;2022-12-15T14:02:34;4.20;99.90
51619;DHT22;38518;53.164;5.430;2022-12-15T14:05:13;4.30;99.90
51619;DHT22;38518;53.164;5.430;2022-12-15T14:07:45;5.00;99.90
51619;DHT22;38518;53.164;5.430;2022-12-15T14:13:07;5.00;99.90
51619;DHT22;38518;53.164;5.430;2022-12-15T14:15:53;4.00;99.90
51619;DHT22;38518;53.164;5.430;2022-12-15T14:20:56;3.90;99.90
51619;DHT22;38518;53.164;5.430;2022-12-15T14:23:28;3.80;99.90
51619;DHT22;38518;53.164;5.430;2022-12-15T14:26:03;3.60;99.90
51619;DHT22;38518;53.164;5.430;2022-12-15T14:28:35;3.80;99.90
51619;DHT22;38518;53.164;5.430;2022-12-15T14:31:19;2.80;99.90
51619;DHT22;38518;53.164;5.430;2022-12-15T14:33:47;3.80;99.90
51619;DHT22;38518;53.164;5.430;2022-12-15T14:36:15;4.20;99.90
51619;DHT22;38518;53.164;5.430;2022-12-15T14:39:06;4.90;99.90
51619;DHT22;38518;53.164;5.430;2022-12-15T14:41:44;3.50;99.90
51619;DHT22;38518;53.164;5.430;2022-12-15T14:44:38;3.40;99.90
51619;DHT22;38518;53.164;5.430;2022-12-15T14:49:45;3.30;99.90
51619;DHT22;38518;53.164;5.430;2022-12-15T14:52:34;3.40;99.90
51619;DHT22;38518;53.164;5.430;2022-12-15T14:55:02;3.20;99.90
51619;DHT22;38518;53.164;5.430;2022-12-15T14:57:43;4.40;99.90
51619;DHT22;38518;53.164;5.430;2022-12-15T15:00:32;3.00;99.90
51619;DHT22;38518;53.164;5.430;2022-12-15T15:05:44;4.40;99.90
51619;DHT22;38518;53.164;5.430;2022-12-15T15:08:22;4.20;99.90
51619;DHT22;38518;53.164;5.430;2022-12-15T15:10:50;2.90;99.90
51619;DHT22;38518;53.164;5.430;2022-12-15T15:13:23;4.70;99.90
51619;DHT22;38518;53.164;5.430;2022-12-15T15:15:56;3.50;99.90
51619;DHT22;38518;53.164;5.430;2022-12-15T15:18:26;4.10;99.90
51619;DHT22;38518;53.164;5.430;2022-12-15T15:21:00;3.80;99.90
51619;DHT22;38518;53.164;5.430;2022-12-15T15:23:28;3.20;99.90
51619;DHT22;38518;53.164;5.430;2022-12-15T15:33:56;2.40;99.90
51619;DHT22;38518;53.164;5.430;2022-12-15T15:36:33;4.30;99.90
51619;DHT22;38518;53.164;5.430;2022-12-15T15:39:02;1.80;99.90
51619;DHT22;38518;53.164;5.430;2022-12-15T15:41:30;3.40;99.90
51619;DHT22;38518;53.164;5.430;2022-12-15T15:43:58;2.60;99.90
51619;DHT22;38518;53.164;5.430;2022-12-15T15:46:28;3.90;99.90
51619;DHT22;38518;53.164;5.430;2022-12-15T15:49:08;2.20;99.90
51619;DHT22;38518;53.164;5.430;2022-12-15T15:51:38;1.30;99.90
51619;DHT22;38518;53.164;5.430;2022-12-15T15:54:28;2.00;99.90
51619;DHT22;38518;53.164;5.430;2022-12-15T15:56:51;4.10;99.90
51619;DHT22;38518;53.164;5.430;2022-12-15T15:59:19;2.60;99.90
51619;DHT22;38518;53.164;5.430;2022-12-15T16:01:52;3.30;1.00
51619;DHT22;38518;53.164;5.430;2022-12-15T16:04:23;1.90;1.00
51619;DHT22;38518;53.164;5.430;2022-12-15T16:06:52;2.00;1.00
51619;DHT22;38518;53.164;5.430;2022-12-15T16:09:18;1.70;1.00
51619;DHT22;38518;53.164;5.430;2022-12-15T16:11:44;2.90;1.00
51619;DHT22;38518;53.164;5.430;2022-12-15T16:14:12;2.80;1.00
51619;DHT22;38518;53.164;5.430;2022-12-15T16:16:38;2.20;1.00
51619;DHT22;38518;53.164;5.430;2022-12-15T16:19:04;2.20;1.00
51619;DHT22;38518;53.164;5.430;2022-12-15T16:21:30;3.50;1.00
51619;DHT22;38518;53.164;5.430;2022-12-15T16:23:56;2.40;1.00
51619;DHT22;38518;53.164;5.430;2022-12-15T16:26:33;2.50;1.00
51619;DHT22;38518;53.164;5.430;2022-12-15T16:29:10;4.20;1.00
51619;DHT22;38518;53.164;5.430;2022-12-15T16:31:38;2.30;1.00
51619;DHT22;38518;53.164;5.430;2022-12-15T16:34:10;3.10;1.00
51619;DHT22;38518;53.164;5.430;2022-12-15T16:36:37;3.40;1.00
51619;DHT22;38518;53.164;5.430;2022-12-15T16:39:04;3.60;1.00
51619;DHT22;38518;53.164;5.430;2022-12-15T16:43:56;2.40;1.00
51619;DHT22;38518;53.164;5.430;2022-12-15T16:46:23;3.20;1.00
51619;DHT22;38518;53.164;5.430;2022-12-15T16:48:48;2.90;1.00
51619;DHT22;38518;53.164;5.430;2022-12-15T16:53:56;2.40;1.00
51619;DHT22;38518;53.164;5.430;2022-12-15T16:56:22;2.60;1.00
51619;DHT22;38518;53.164;5.430;2022-12-15T16:58:48;2.30;1.00
51619;DHT22;38518;53.164;5.430;2022-12-15T17:01:16;0.90;1.00
51619;DHT22;38518;53.164;5.430;2022-12-15T17:03:42;2.80;1.00
51619;DHT22;38518;53.164;5.430;2022-12-15T17:06:12;2.40;1.00
51619;DHT22;38518;53.164;5.430;2022-12-15T17:08:45;3.70;1.00
51619;DHT22;38518;53.164;5.430;2022-12-15T17:11:18;3.80;1.00
51619;DHT22;38518;53.164;5.430;2022-12-15T17:13:45;3.80;1.00
51619;DHT22;38518;53.164;5.430;2022-12-15T17:16:16;4.10;1.00
51619;DHT22;38518;53.164;5.430;2022-12-15T17:21:20;2.40;1.00
51619;DHT22;38518;53.164;5.430;2022-12-15T17:23:50;3.60;1.00
51619;DHT22;38518;53.164;5.430;2022-12-15T17:26:22;3.70;1.00
51619;DHT22;38518;53.164;5.430;2022-12-15T17:28:48;3.00;1.00
51619;DHT22;38518;53.164;5.430;2022-12-15T17:31:19;3.20;1.00
51619;DHT22;38518;53.164;5.430;2022-12-15T17:33:46;2.60;1.00
51619;DHT22;38518;53.164;5.430;2022-12-15T17:36:24;2.30;1.00
51619;DHT22;38518;53.164;5.430;2022-12-15T17:38:57;2.20;1.00
51619;DHT22;38518;53.164;5.430;2022-12-15T17:41:25;2.30;1.00
51619;DHT22;38518;53.164;5.430;2022-12-15T17:43:51;2.30;1.00
51619;DHT22;38518;53.164;5.430;2022-12-15T17:46:17;2.60;1.00
51619;DHT22;38518;53.164;5.430;2022-12-15T17:48:46;2.80;1.00
51619;DHT22;38518;53.164;5.430;2022-12-15T17:51:17;2.10;1.00
51619;DHT22;38518;53.164;5.430;2022-12-15T17:53:45;3.30;1.00
51619;DHT22;38518;53.164;5.430;2022-12-15T17:56:14;2.20;1.00
51619;DHT22;38518;53.164;5.430;2022-12-15T17:58:40;3.20;1.00
51619;DHT22;38518;53.164;5.430;2022-12-15T18:01:11;1.90;1.00
51619;DHT22;38518;53.164;5.430;2022-12-15T18:03:37;3.90;1.00
51619;DHT22;38518;53.164;5.430;2022-12-15T18:06:03;3.30;1.00
51619;DHT22;38518;53.164;5.430;2022-12-15T18:08:32;2.10;1.00
51619;DHT22;38518;53.164;5.430;2022-12-15T18:10:58;2.10;1.00
51619;DHT22;38518;53.164;5.430;2022-12-15T18:13:26;2.80;3.10
51619;DHT22;38518;53.164;5.430;2022-12-15T18:15:53;3.10;1.00
51619;DHT22;38518;53.164;5.430;2022-12-15T18:18:21;3.60;1.00
51619;DHT22;38518;53.164;5.430;2022-12-15T18:20:47;2.10;1.00
51619;DHT22;38518;53.164;5.430;2022-12-15T18:23:20;2.10;1.00
51619;DHT22;38518;53.164;5.430;2022-12-15T18:25:47;3.40;1.00
51619;DHT22;38518;53.164;5.430;2022-12-15T18:28:20;3.20;1.00
51619;DHT22;38518;53.164;5.430;2022-12-15T18:30:51;2.10;1.00
51619;DHT22;38518;53.164;5.430;2022-12-15T18:33:18;2.20;1.00
51619;DHT22;38518;53.164;5.430;2022-12-15T18:35:46;2.60;1.00
51619;DHT22;38518;53.164;5.430;2022-12-15T18:38:27;2.00;1.00
51619;DHT22;38518;53.164;5.430;2022-12-15T18:40:56;2.50;1.00
51619;DHT22;38518;53.164;5.430;2022-12-15T18:43:24;3.80;1.00
51619;DHT22;38518;53.164;5.430;2022-12-15T18:45:51;3.40;1.00
51619;DHT22;38518;53.164;5.430;2022-12-15T18:48:28;2.70;1.00
51619;DHT22;38518;53.164;5.430;2022-12-15T18:50:56;3.10;1.00
51619;DHT22;38518;53.164;5.430;2022-12-15T18:53:29;1.80;1.00
51619;DHT22;38518;53.164;5.430;2022-12-15T18:55:58;1.70;1.00
51619;DHT22;38518;53.164;5.430;2022-12-15T18:58:30;2.60;1.00
51619;DHT22;38518;53.164;5.430;2022-12-15T19:00:59;2.10;1.00
51619;DHT22;38518;53.164;5.430;2022-12-15T19:03:26;1.60;1.00
51619;DHT22;38518;53.164;5.430;2022-12-15T19:05:57;2.60;1.00
51619;DHT22;38518;53.164;5.430;2022-12-15T19:08:24;2.40;1.00
51619;DHT22;38518;53.164;5.430;2022-12-15T19:11:06;1.50;1.00
51619;DHT22;38518;53.164;5.430;2022-12-15T19:13:35;1.40;1.00
51619;DHT22;38518;53.164;5.430;2022-12-15T19:16:03;2.60;1.00
51619;DHT22;38518;53.164;5.430;2022-12-15T19:18:29;1.50;1.00
51619;DHT22;38518;53.164;5.430;2022-12-15T19:21:17;1.90;1.00
51619;DHT22;38518;53.164;5.430;2022-12-15T19:23:53;1.20;1.00
51619;DHT22;38518;53.164;5.430;2022-12-15T19:28:45;1.10;1.00
51619;DHT22;38518;53.164;5.430;2022-12-15T19:31:11;2.00;1.00
51619;DHT22;38518;53.164;5.430;2022-12-15T19:33:36;0.90;1.00
51619;DHT22;38518;53.164;5.430;2022-12-15T19:36:04;1.90;1.00
51619;DHT22;38518;53.164;5.430;2022-12-15T19:38:36;1.00;1.00
51619;DHT22;38518;53.164;5.430;2022-12-15T19:41:02;1.00;1.00
51619;DHT22;38518;53.164;5.430;2022-12-15T19:43:28;0.90;1.00
51619;DHT22;38518;53.164;5.430;2022-12-15T19:45:54;1.00;1.00
51619;DHT22;38518;53.164;5.430;2022-12-15T19:48:20;2.30;1.00
51619;DHT22;38518;53.164;5.430;2022-12-15T19:50:46;-0.30;1.00
51619;DHT22;38518;53.164;5.430;2022-12-15T19:53:24;1.60;1.00
51619;DHT22;38518;53.164;5.430;2022-12-15T19:55:53;1.10;1.00
51619;DHT22;38518;53.164;5.430;2022-12-15T19:58:25;1.60;1.00
51619;DHT22;38518;53.164;5.430;2022-12-15T20:00:53;1.30;1.00
51619;DHT22;38518;53.164;5.430;2022-12-15T20:03:18;1.30;1.00
51619;DHT22;38518;53.164;5.430;2022-12-15T20:05:45;2.20;1.00
51619;DHT22;38518;53.164;5.430;2022-12-15T20:08:19;2.10;1.00
51619;DHT22;38518;53.164;5.430;2022-12-15T20:10:46;1.30;1.00
51619;DHT22;38518;53.164;5.430;2022-12-15T20:13:13;1.10;1.00
51619;DHT22;38518;53.164;5.430;2022-12-15T20:15:39;1.00;4.80